Time;durP1;ratioP1;P1;durP2;ratioP2;P2;SDS_P1;SDS_P2;PMS_P1;PMS_P2;Temp;Humidity;BMP_temperature;BMP_pressure;BME280_temperature;BME280_humidity;BME280_pressure;Samples;Min_cycle;Max_cycle;Signal;HPM_P1;HPM_P2
2024/01/07 00:01:48;;;;;;;12.20;9.00;;;;;;;22.22;34.98;99661.30;103235;1281;61251;-76
2024/01/07 00:04:17;;;;;;;13.50;9.10;;;;;;;22.22;34.91;99660.26;103409;1282;72834;-76
2024/01/07 00:06:43;;;;;;;13.80;9.50;;;;;;;22.22;34.95;99659.17;103366;1282;74577;-76
2024/01/07 00:09:11;;;;;;;14.20;9.50;;;;;;;22.22;34.88;99661.86;103395;1281;61311;-76
2024/01/07 00:11:37;;;;;;;13.30;8.90;;;;;;;22.22;34.93;99663.62;103365;1281;60131;-76
2024/01/07 00:14:02;;;;;;;13.90;9.60;;;;;;;22.23;34.86;99658.79;103387;1281;61395;-76
2024/01/07 00:16:28;;;;;;;13.20;9.20;;;;;;;22.23;34.90;99650.14;103352;1282;61375;-76
2024/01/07 00:18:53;;;;;;;12.60;8.90;;;;;;;22.23;34.87;99649.41;103360;1280;61280;-76
2024/01/07 00:21:19;;;;;;;13.60;9.50;;;;;;;22.23;34.90;99649.23;103432;1282;61283;-76
2024/01/07 00:23:45;;;;;;;13.30;9.60;;;;;;;22.23;34.98;99651.06;103228;1281;62048;-76
2024/01/07 00:26:10;;;;;;;13.90;9.00;;;;;;;22.23;34.88;99650.89;103340;1284;61336;-76
2024/01/07 00:28:36;;;;;;;11.20;8.70;;;;;;;22.23;34.88;99645.82;103300;1282;61400;-76
2024/01/07 00:31:01;;;;;;;12.40;9.00;;;;;;;22.23;34.88;99636.51;103399;1281;61453;-77
2024/01/07 00:33:27;;;;;;;13.10;9.00;;;;;;;22.23;34.87;99637.02;103304;1282;61357;-76
2024/01/07 00:35:53;;;;;;;12.90;9.30;;;;;;;22.23;34.78;99638.83;103264;1282;61366;-76
2024/01/07 00:38:18;;;;;;;12.10;9.10;;;;;;;22.24;34.87;99648.66;103348;1281;61326;-76
2024/01/07 00:40:45;;;;;;;11.90;8.90;;;;;;;22.24;34.88;99649.55;103586;1282;61139;-76
2024/01/07 00:43:10;;;;;;;11.90;9.10;;;;;;;22.24;34.81;99655.24;103389;1280;61501;-76
2024/01/07 00:45:36;;;;;;;12.70;8.90;;;;;;;22.24;34.84;99655.61;103364;1281;70800;-76
2024/01/07 00:48:03;;;;;;;11.70;9.20;;;;;;;22.24;34.88;99650.41;103414;1281;61264;-76
2024/01/07 00:50:29;;;;;;;13.30;9.70;;;;;;;22.24;34.85;99642.65;103012;1282;61938;-76
2024/01/07 00:52:55;;;;;;;14.00;9.80;;;;;;;22.24;34.85;99630.48;103446;1280;61371;-76
2024/01/07 00:55:22;;;;;;;13.80;9.40;;;;;;;22.24;34.81;99626.18;103350;1281;61249;-76
2024/01/07 00:57:47;;;;;;;13.10;9.50;;;;;;;22.24;34.90;99620.50;103266;1281;61365;-76
2024/01/07 01:00:13;;;;;;;14.70;9.70;;;;;;;22.24;34.85;99620.46;103258;1282;61277;-76
2024/01/07 01:02:39;;;;;;;12.60;9.10;;;;;;;22.25;34.87;99620.02;103373;1282;61385;-76
2024/01/07 01:05:05;;;;;;;13.60;9.50;;;;;;;22.24;34.76;99619.34;103394;1282;61309;-76
2024/01/07 01:07:31;;;;;;;13.10;9.30;;;;;;;22.25;34.83;99624.83;103261;1281;62132;-76
2024/01/07 01:09:56;;;;;;;12.40;9.30;;;;;;;22.25;34.83;99627.54;103300;1282;61479;-75
2024/01/07 01:12:22;;;;;;;13.60;9.30;;;;;;;22.25;34.68;99624.88;103342;1282;72797;-76
2024/01/07 01:14:48;;;;;;;12.90;9.70;;;;;;;22.25;34.78;99616.79;103357;1281;61410;-76
2024/01/07 01:17:14;;;;;;;13.50;10.00;;;;;;;22.26;34.74;99613.33;103318;1281;61264;-76
2024/01/07 01:19:40;;;;;;;12.10;9.10;;;;;;;22.25;34.72;99608.23;103354;1282;59241;-76
2024/01/07 01:22:05;;;;;;;12.50;9.30;;;;;;;22.25;34.82;99612.86;103334;1281;60049;-75
2024/01/07 01:24:31;;;;;;;13.60;9.80;;;;;;;22.25;34.84;99612.48;103360;1284;61370;-76
2024/01/07 01:26:57;;;;;;;12.90;9.40;;;;;;;22.25;34.89;99608.85;103370;1284;61379;-76
2024/01/07 01:29:22;;;;;;;15.10;10.20;;;;;;;22.25;34.76;99597.23;103244;1282;61368;-76
2024/01/07 01:31:48;;;;;;;12.70;10.10;;;;;;;22.25;34.76;99586.50;103252;1281;61318;-76
2024/01/07 01:34:13;;;;;;;14.70;9.70;;;;;;;22.25;34.82;99591.52;103317;1282;61318;-76
2024/01/07 01:36:39;;;;;;;13.60;9.90;;;;;;;22.25;34.74;99587.73;103255;1283;62197;-76
2024/01/07 01:39:05;;;;;;;14.80;10.30;;;;;;;22.26;34.82;99588.05;103271;1282;61374;-76
2024/01/07 01:41:31;;;;;;;11.80;9.50;;;;;;;22.26;34.80;99586.98;103326;1281;61348;-76
2024/01/07 01:43:58;;;;;;;14.40;10.00;;;;;;;22.26;34.80;99588.77;103249;1282;61440;-76
2024/01/07 01:46:24;;;;;;;11.80;9.50;;;;;;;22.26;34.79;99591.11;103203;1282;72345;-76
2024/01/07 01:48:49;;;;;;;13.70;9.70;;;;;;;22.26;34.72;99588.39;103245;1282;61410;-76
2024/01/07 01:51:15;;;;;;;14.50;10.00;;;;;;;22.26;34.84;99585.18;103598;1285;61377;-76
2024/01/07 01:53:41;;;;;;;13.30;9.40;;;;;;;22.26;34.68;99576.38;103156;1282;61421;-76
2024/01/07 01:56:06;;;;;;;13.70;9.80;;;;;;;22.26;34.75;99564.95;103314;1282;61401;-76
2024/01/07 01:58:33;;;;;;;13.60;10.00;;;;;;;22.26;34.75;99561.15;103229;1281;72107;-76
2024/01/07 02:00:58;;;;;;;13.10;9.50;;;;;;;22.26;34.77;99557.95;103072;1282;61435;-75
2024/01/07 02:03:25;;;;;;;13.50;9.70;;;;;;;22.24;34.72;99554.68;103107;1282;61381;-76
2024/01/07 02:05:51;;;;;;;13.50;9.60;;;;;;;22.23;34.67;99550.48;103270;1282;61245;-76
2024/01/07 02:08:18;;;;;;;13.40;9.70;;;;;;;22.21;34.78;99563.37;103244;1281;61428;-76
2024/01/07 02:10:44;;;;;;;14.00;10.10;;;;;;;22.20;34.81;99569.80;103451;1282;61299;-76
2024/01/07 02:13:10;;;;;;;12.20;9.50;;;;;;;22.17;34.70;99571.99;103074;1282;61448;-76
2024/01/07 02:15:37;;;;;;;14.40;9.70;;;;;;;22.16;34.84;99566.98;103168;1282;61366;-76
2024/01/07 02:18:02;;;;;;;13.60;10.00;;;;;;;22.13;34.79;99562.08;103235;1282;61263;-76
2024/01/07 02:20:28;;;;;;;12.80;9.20;;;;;;;22.11;34.76;99569.00;103350;1282;61405;-76
2024/01/07 02:22:54;;;;;;;14.70;9.80;;;;;;;22.09;34.76;99568.13;103225;1282;61395;-76
2024/01/07 02:25:19;;;;;;;14.20;9.40;;;;;;;22.06;34.78;99565.67;103152;1282;62040;-76
2024/01/07 02:27:45;;;;;;;13.10;9.10;;;;;;;22.05;34.85;99565.33;103261;1281;62267;-76
2024/01/07 02:30:11;;;;;;;13.10;9.60;;;;;;;22.02;34.81;99567.31;103226;1285;60068;-76
2024/01/07 02:32:37;;;;;;;13.60;9.70;;;;;;;22.01;34.87;99556.02;103295;1282;61280;-76
2024/01/07 02:35:04;;;;;;;14.30;9.50;;;;;;;21.98;34.87;99545.91;103297;1281;61272;-76
2024/01/07 02:37:29;;;;;;;14.90;10.10;;;;;;;21.96;34.86;99540.90;103081;1282;59361;-75
2024/01/07 02:39:55;;;;;;;13.40;9.50;;;;;;;21.94;34.90;99533.77;103246;1285;61471;-76
2024/01/07 02:42:21;;;;;;;15.90;9.90;;;;;;;21.91;34.86;99527.71;103279;1282;61536;-76
2024/01/07 02:44:47;;;;;;;13.10;10.10;;;;;;;21.89;34.87;99521.09;103230;1281;73324;-76
2024/01/07 02:47:13;;;;;;;14.00;9.80;;;;;;;21.87;34.91;99523.42;103260;1282;61491;-75
2024/01/07 02:49:38;;;;;;;13.90;9.60;;;;;;;21.85;34.79;99526.12;103262;1286;61334;-75
2024/01/07 02:52:04;;;;;;;14.70;9.80;;;;;;;21.84;34.94;99524.65;103219;1282;61423;-76
2024/01/07 02:54:30;;;;;;;14.50;10.00;;;;;;;21.82;35.00;99519.62;103184;1282;61218;-76
2024/01/07 02:56:56;;;;;;;12.60;9.70;;;;;;;21.81;34.95;99519.60;103275;1282;62227;-76
2024/01/07 02:59:22;;;;;;;14.70;10.20;;;;;;;21.79;35.08;99519.56;103320;1283;61248;-76
2024/01/07 03:01:48;;;;;;;12.40;9.30;;;;;;;21.77;35.09;99524.23;103298;1285;61270;-76
2024/01/07 03:04:15;;;;;;;16.10;9.70;;;;;;;21.76;35.01;99526.79;103270;1281;61404;-76
2024/01/07 03:06:41;;;;;;;14.80;9.90;;;;;;;21.75;34.95;99517.09;103271;1281;61248;-76
2024/01/07 03:09:07;;;;;;;14.20;9.80;;;;;;;21.73;35.07;99516.73;103187;1282;61376;-76
2024/01/07 03:11:32;;;;;;;13.00;10.30;;;;;;;21.72;34.96;99521.11;103206;1282;61285;-76
2024/01/07 03:13:58;;;;;;;12.10;9.30;;;;;;;21.71;35.00;99523.21;103268;1282;61443;-76
2024/01/07 03:16:25;;;;;;;13.80;9.60;;;;;;;21.69;34.97;99518.02;103312;1282;61475;-76
2024/01/07 03:18:50;;;;;;;13.90;9.40;;;;;;;21.68;35.05;99512.19;103293;1281;74275;-76
2024/01/07 03:21:19;;;;;;;13.50;9.50;;;;;;;21.67;35.19;99514.80;103248;1282;61394;-76
2024/01/07 03:23:47;;;;;;;13.60;9.70;;;;;;;21.66;35.03;99509.84;103288;1281;61365;-76
2024/01/07 03:26:12;;;;;;;13.40;9.80;;;;;;;21.65;35.09;99502.64;103276;1285;74136;-76
2024/01/07 03:28:38;;;;;;;13.80;9.70;;;;;;;21.63;35.26;99494.02;103017;1282;61339;-76
2024/01/07 03:31:15;;;;;;;13.70;9.80;;;;;;;21.62;35.17;99485.48;103276;1282;61276;-76
2024/01/07 03:33:41;;;;;;;15.30;10.00;;;;;;;21.61;35.10;99490.27;103387;1282;61445;-76
2024/01/07 03:36:11;;;;;;;13.50;9.90;;;;;;;21.60;35.07;99483.20;103070;1283;72558;-76
2024/01/07 03:38:37;;;;;;;12.50;9.80;;;;;;;21.59;35.14;99482.59;103308;1281;74357;-77
2024/01/07 03:41:03;;;;;;;14.60;10.40;;;;;;;21.58;35.01;99480.19;103283;1281;61448;-76
2024/01/07 03:43:29;;;;;;;15.40;10.30;;;;;;;21.57;35.20;99472.02;103178;1282;61252;-76
2024/01/07 03:45:54;;;;;;;13.00;9.30;;;;;;;21.56;35.09;99465.48;103377;1282;61345;-76
2024/01/07 03:48:20;;;;;;;12.60;9.60;;;;;;;21.55;35.17;99465.74;103264;1285;61421;-76
2024/01/07 03:50:45;;;;;;;12.70;9.20;;;;;;;21.54;35.22;99460.65;103210;1282;61325;-77
2024/01/07 03:53:11;;;;;;;15.00;10.20;;;;;;;21.53;35.15;99457.64;103282;1282;59968;-76
2024/01/07 03:55:37;;;;;;;13.00;9.90;;;;;;;21.53;35.28;99453.98;103264;1282;61370;-77
2024/01/07 03:58:03;;;;;;;13.60;10.20;;;;;;;21.52;35.17;99456.17;103306;1283;61276;-76
2024/01/07 04:00:28;;;;;;;13.30;9.60;;;;;;;21.51;35.20;99447.84;103264;1282;61383;-77
2024/01/07 04:02:54;;;;;;;12.50;9.40;;;;;;;21.51;35.21;99452.36;103307;1282;62847;-76
2024/01/07 04:05:20;;;;;;;14.60;10.10;;;;;;;21.50;35.13;99449.92;103339;1282;61430;-76
2024/01/07 04:07:45;;;;;;;14.30;9.70;;;;;;;21.50;35.07;99446.57;103284;1282;61179;-76
2024/01/07 04:10:11;;;;;;;13.90;9.70;;;;;;;21.49;35.18;99446.63;103292;1282;62160;-76
2024/01/07 04:12:37;;;;;;;12.90;9.20;;;;;;;21.49;35.23;99451.11;103312;1285;61351;-76
2024/01/07 04:15:04;;;;;;;12.60;9.20;;;;;;;21.48;35.16;99453.35;103342;1282;62185;-76
2024/01/07 04:17:30;;;;;;;13.00;9.00;;;;;;;21.48;35.20;99454.80;103321;1283;61282;-76
2024/01/07 04:19:55;;;;;;;14.50;9.50;;;;;;;21.47;35.28;99458.77;103326;1285;61555;-76
2024/01/07 04:22:21;;;;;;;13.70;10.20;;;;;;;21.47;35.13;99459.16;103298;1282;61330;-76
2024/01/07 04:24:47;;;;;;;11.30;9.00;;;;;;;21.46;35.29;99460.47;103793;1282;61455;-77
2024/01/07 04:27:12;;;;;;;15.20;9.40;;;;;;;21.46;35.16;99471.44;103280;1285;61334;-76
2024/01/07 04:29:38;;;;;;;14.00;9.70;;;;;;;21.45;35.27;99473.25;103294;1281;60498;-76
2024/01/07 04:32:04;;;;;;;13.90;10.00;;;;;;;21.45;35.23;99471.16;103307;1282;61251;-76
2024/01/07 04:34:30;;;;;;;12.20;9.40;;;;;;;21.44;35.19;99467.64;103341;1282;61455;-76
2024/01/07 04:36:55;;;;;;;12.00;9.10;;;;;;;21.44;35.23;99468.70;103189;1282;61264;-76
2024/01/07 04:39:22;;;;;;;13.10;9.30;;;;;;;21.44;35.30;99467.15;103257;1282;61399;-76
2024/01/07 04:41:47;;;;;;;14.20;9.90;;;;;;;21.43;35.20;99470.58;103245;1283;61458;-76
2024/01/07 04:44:14;;;;;;;14.20;9.60;;;;;;;21.43;35.11;99462.41;103352;1282;73338;-76
2024/01/07 04:46:40;;;;;;;12.50;9.40;;;;;;;21.42;35.31;99456.90;103208;1287;61430;-77
2024/01/07 04:49:06;;;;;;;12.20;9.40;;;;;;;21.42;35.09;99461.23;103333;1282;61267;-77
2024/01/07 04:51:32;;;;;;;13.10;9.40;;;;;;;21.42;35.18;99455.88;103386;1282;61478;-76
2024/01/07 04:53:58;;;;;;;13.50;8.80;;;;;;;21.41;35.24;99458.06;103327;1287;61259;-76
2024/01/07 04:56:24;;;;;;;12.40;10.10;;;;;;;21.41;35.24;99459.52;103320;1285;62252;-77
2024/01/07 04:58:50;;;;;;;12.10;9.00;;;;;;;21.40;35.19;99454.38;103240;1282;62291;-76
2024/01/07 05:01:16;;;;;;;11.60;9.20;;;;;;;21.40;35.28;99452.26;103308;1282;61398;-76
2024/01/07 05:03:42;;;;;;;13.90;9.00;;;;;;;21.40;35.12;99447.28;103512;1282;59378;-76
2024/01/07 05:06:11;;;;;;;13.40;9.00;;;;;;;21.40;35.22;99446.41;103289;1286;62273;-76
2024/01/07 05:08:37;;;;;;;12.10;9.00;;;;;;;21.39;35.35;99444.48;103007;1282;74670;-76
2024/01/07 05:11:06;;;;;;;11.30;8.90;;;;;;;21.38;35.24;99440.45;103323;1282;59965;-76
2024/01/07 05:13:32;;;;;;;14.80;9.60;;;;;;;21.38;35.21;99439.95;103324;1282;61371;-76
2024/01/07 05:15:57;;;;;;;12.40;8.70;;;;;;;21.38;35.33;99439.44;103304;1285;61268;-77
2024/01/07 05:18:23;;;;;;;12.70;9.00;;;;;;;21.37;35.31;99432.48;103330;1286;61256;-76
2024/01/07 05:20:49;;;;;;;12.00;9.20;;;;;;;21.37;35.28;99426.80;103070;1285;61347;-76
2024/01/07 05:23:15;;;;;;;13.20;8.70;;;;;;;21.37;35.25;99421.10;103216;1282;61384;-76
2024/01/07 05:25:44;;;;;;;12.50;9.00;;;;;;;21.36;35.27;99418.12;103072;1287;61562;-76
2024/01/07 05:28:10;;;;;;;11.70;8.30;;;;;;;21.36;35.27;99417.61;103182;1287;61244;-77
2024/01/07 05:30:36;;;;;;;12.40;8.70;;;;;;;21.35;35.27;99421.95;103274;1282;61401;-76
2024/01/07 05:33:02;;;;;;;11.40;8.20;;;;;;;21.35;35.18;99426.98;103194;1282;61461;-76
2024/01/07 05:35:28;;;;;;;14.70;9.30;;;;;;;21.35;35.21;99424.27;103232;1285;61311;-76
2024/01/07 05:37:53;;;;;;;12.50;8.80;;;;;;;21.35;35.40;99413.89;103264;1285;61262;-76
2024/01/07 05:40:19;;;;;;;12.40;8.40;;;;;;;21.35;35.34;99415.20;103311;1286;61368;-76
2024/01/07 05:42:44;;;;;;;11.70;8.50;;;;;;;21.33;35.26;99412.09;103327;1283;61257;-77
2024/01/07 05:45:10;;;;;;;12.40;9.10;;;;;;;21.34;35.47;99409.18;103326;1282;61384;-76
2024/01/07 05:47:36;;;;;;;11.80;8.80;;;;;;;21.34;35.30;99399.91;103305;1282;60824;-76
2024/01/07 05:50:02;;;;;;;12.10;8.50;;;;;;;21.33;35.23;99391.52;103304;1282;62332;-76
2024/01/07 05:52:28;;;;;;;12.00;8.30;;;;;;;21.33;35.29;99390.64;103389;1282;61408;-76
2024/01/07 05:54:54;;;;;;;12.20;9.10;;;;;;;21.34;35.15;99391.52;103268;1282;60139;-76
2024/01/07 05:57:19;;;;;;;11.70;8.70;;;;;;;21.33;35.24;99384.08;103330;1282;62187;-77
2024/01/07 05:59:45;;;;;;;11.50;8.30;;;;;;;21.32;35.30;99376.80;103040;1286;61380;-77
2024/01/07 06:02:12;;;;;;;11.20;8.20;;;;;;;21.32;35.29;99368.42;103296;1286;62363;-76
2024/01/07 06:04:38;;;;;;;11.20;8.50;;;;;;;21.31;35.28;99360.23;103160;1281;61338;-77
2024/01/07 06:07:04;;;;;;;12.60;8.60;;;;;;;21.32;35.31;99359.49;103153;1282;61381;-76
2024/01/07 06:09:30;;;;;;;11.30;8.30;;;;;;;21.31;35.28;99357.88;103294;1281;62187;-77
2024/01/07 06:11:55;;;;;;;13.20;9.10;;;;;;;21.31;35.20;99354.89;103321;1282;61353;-76
2024/01/07 06:14:22;;;;;;;12.40;8.70;;;;;;;21.31;35.36;99354.18;103316;1282;61370;-76
2024/01/07 06:16:48;;;;;;;10.90;7.90;;;;;;;21.31;35.37;99346.13;103288;1282;61185;-76
2024/01/07 06:19:16;;;;;;;11.60;8.80;;;;;;;21.31;35.19;99337.56;103150;1282;61528;-77
2024/01/07 06:21:43;;;;;;;11.50;8.50;;;;;;;21.31;35.32;99337.91;103409;1285;61434;-76
2024/01/07 06:24:09;;;;;;;12.50;8.10;;;;;;;21.30;35.36;99337.77;103353;1282;61372;-76
2024/01/07 06:26:34;;;;;;;11.90;8.50;;;;;;;21.30;35.30;99345.52;103313;1281;61358;-76
2024/01/07 06:29:01;;;;;;;12.50;8.70;;;;;;;21.30;35.35;99342.11;103361;1285;61727;-77
2024/01/07 06:31:26;;;;;;;10.90;8.40;;;;;;;21.30;35.35;99338.90;103381;1285;61475;-76
2024/01/07 06:33:52;;;;;;;12.50;8.50;;;;;;;21.29;35.39;99337.71;103258;1287;59974;-76
2024/01/07 06:36:18;;;;;;;11.60;8.70;;;;;;;21.29;35.27;99336.64;103278;1283;61260;-77
2024/01/07 06:38:43;;;;;;;11.90;8.00;;;;;;;21.29;35.31;99335.57;103250;1282;60144;-77
2024/01/07 06:41:11;;;;;;;11.00;7.80;;;;;;;21.29;35.35;99334.15;103332;1281;61317;-76
2024/01/07 06:43:37;;;;;;;11.70;8.30;;;;;;;21.28;35.42;99329.01;103260;1282;61418;-76
2024/01/07 06:46:03;;;;;;;11.30;8.30;;;;;;;21.28;35.40;99325.12;103281;1288;60007;-76
2024/01/07 06:48:28;;;;;;;10.30;8.10;;;;;;;21.28;35.29;99321.50;103286;1282;61394;-76
2024/01/07 06:50:54;;;;;;;10.60;7.30;;;;;;;21.28;35.33;99318.84;103386;1281;61376;-76
2024/01/07 06:53:19;;;;;;;11.80;8.20;;;;;;;21.28;35.33;99314.41;103315;1286;59920;-76
2024/01/07 06:55:45;;;;;;;10.90;8.20;;;;;;;21.27;35.30;99314.80;103341;1281;74459;-76
2024/01/07 06:58:11;;;;;;;10.70;7.70;;;;;;;21.27;35.41;99310.89;103281;1282;61411;-76
2024/01/07 07:00:36;;;;;;;11.10;8.20;;;;;;;21.27;35.48;99308.74;103349;1282;61394;-76
2024/01/07 07:03:02;;;;;;;10.20;7.70;;;;;;;21.27;35.43;99307.86;103103;1282;61407;-76
2024/01/07 07:05:28;;;;;;;10.40;7.40;;;;;;;21.26;35.40;99303.09;103272;1282;61408;-76
2024/01/07 07:07:53;;;;;;;10.90;8.10;;;;;;;21.27;35.38;99299.10;103320;1286;60090;-76
2024/01/07 07:10:19;;;;;;;10.60;7.70;;;;;;;21.26;35.42;99293.06;103307;1284;62280;-76
2024/01/07 07:12:44;;;;;;;9.50;7.30;;;;;;;21.26;35.41;99284.13;103292;1283;61440;-76
2024/01/07 07:15:10;;;;;;;11.10;7.80;;;;;;;21.26;35.41;99278.94;103224;1282;60013;-77
2024/01/07 07:17:38;;;;;;;12.30;7.80;;;;;;;21.25;35.42;99270.58;103524;1283;61380;-76
2024/01/07 07:20:05;;;;;;;11.50;8.00;;;;;;;21.25;35.47;99260.55;103242;1283;61390;-77
2024/01/07 07:22:31;;;;;;;10.50;7.70;;;;;;;21.25;35.39;99261.45;103330;1282;61710;-76
2024/01/07 07:24:56;;;;;;;11.30;7.60;;;;;;;21.25;35.32;99265.97;103189;1282;61361;-76
2024/01/07 07:27:22;;;;;;;11.60;7.70;;;;;;;21.25;35.47;99261.14;103330;1283;62156;-76
2024/01/07 07:29:48;;;;;;;10.80;8.10;;;;;;;21.25;35.42;99255.94;103240;1287;61408;-76
2024/01/07 07:32:14;;;;;;;10.20;7.20;;;;;;;21.25;35.41;99254.89;103342;1285;61376;-76
2024/01/07 07:34:39;;;;;;;10.00;7.60;;;;;;;21.25;35.47;99250.98;103318;1283;61226;-76
2024/01/07 07:37:05;;;;;;;11.30;7.60;;;;;;;21.25;35.33;99248.83;103344;1283;61394;-76
2024/01/07 07:39:30;;;;;;;10.60;7.30;;;;;;;21.24;35.32;99248.17;102876;1286;59844;-76
2024/01/07 07:41:57;;;;;;;10.60;7.50;;;;;;;21.24;35.54;99250.33;103359;1281;61247;-76
2024/01/07 07:44:24;;;;;;;10.70;7.70;;;;;;;21.24;35.52;99252.80;103323;1282;61487;-76
2024/01/07 07:46:50;;;;;;;10.60;7.70;;;;;;;21.24;35.49;99254.65;103335;1285;61372;-77
2024/01/07 07:49:16;;;;;;;10.40;7.50;;;;;;;21.24;35.54;99247.34;103306;1286;61270;-77
2024/01/07 07:51:43;;;;;;;11.80;7.90;;;;;;;21.24;35.51;99243.38;103340;1283;61384;-76
2024/01/07 07:54:09;;;;;;;9.80;7.80;;;;;;;21.23;35.44;99241.45;103316;1283;62264;-76
2024/01/07 07:56:35;;;;;;;10.60;7.70;;;;;;;21.23;35.55;99237.16;103227;1284;59385;-76
2024/01/07 07:59:04;;;;;;;10.10;7.30;;;;;;;21.23;35.49;99238.23;103350;1282;61229;-76
2024/01/07 08:01:30;;;;;;;9.70;7.20;;;;;;;21.23;35.45;99240.45;103118;1282;62164;-76
2024/01/07 08:03:56;;;;;;;10.50;7.30;;;;;;;21.22;35.61;99244.05;103285;1283;61374;-76
2024/01/07 08:06:21;;;;;;;10.50;7.70;;;;;;;21.22;35.38;99241.71;103224;1284;61351;-77
2024/01/07 08:08:47;;;;;;;10.60;7.50;;;;;;;21.23;35.53;99235.60;103369;1285;61298;-76
2024/01/07 08:11:13;;;;;;;9.60;7.20;;;;;;;21.22;35.40;99235.33;103263;1283;61424;-76
2024/01/07 08:13:38;;;;;;;11.20;7.40;;;;;;;21.22;35.51;99237.64;103327;1283;61329;-76
2024/01/07 08:16:05;;;;;;;10.80;7.20;;;;;;;21.21;35.47;99231.27;103331;1283;61374;-76
2024/01/07 08:18:31;;;;;;;9.20;7.00;;;;;;;21.21;35.66;99223.01;103489;1283;61268;-76
2024/01/07 08:20:57;;;;;;;9.70;7.20;;;;;;;21.21;35.52;99222.14;103110;1282;61429;-76
2024/01/07 08:23:24;;;;;;;11.30;7.10;;;;;;;21.21;35.39;99216.29;103195;1283;61224;-76
2024/01/07 08:25:51;;;;;;;11.60;7.60;;;;;;;21.21;35.45;99218.95;103208;1284;61361;-76
2024/01/07 08:28:17;;;;;;;9.60;7.40;;;;;;;21.20;35.55;99214.52;103223;1283;61365;-77
2024/01/07 08:30:44;;;;;;;9.50;7.20;;;;;;;21.20;35.60;99218.67;103302;1282;59360;-76
2024/01/07 08:33:10;;;;;;;9.90;7.30;;;;;;;21.19;35.59;99216.95;103306;1286;61407;-77
2024/01/07 08:35:36;;;;;;;10.80;7.20;;;;;;;21.20;35.56;99216.39;103195;1283;60109;-76
2024/01/07 08:38:03;;;;;;;10.90;7.20;;;;;;;21.19;35.66;99219.80;103301;1283;62114;-77
2024/01/07 08:40:29;;;;;;;9.60;7.20;;;;;;;21.18;35.64;99217.41;103184;1282;61366;-76
2024/01/07 08:42:55;;;;;;;9.80;6.60;;;;;;;21.19;35.53;99212.52;103262;1285;61222;-76
2024/01/07 08:45:21;;;;;;;12.40;7.50;;;;;;;21.19;35.53;99207.86;103254;1282;61519;-76
2024/01/07 08:47:47;;;;;;;9.50;7.00;;;;;;;21.19;35.63;99204.50;103181;1288;61261;-77
2024/01/07 08:50:12;;;;;;;10.30;7.20;;;;;;;21.19;35.58;99197.36;103262;1282;59307;-76
2024/01/07 08:52:38;;;;;;;10.50;7.50;;;;;;;21.19;35.53;99194.16;103266;1283;62264;-77
2024/01/07 08:55:06;;;;;;;10.70;7.10;;;;;;;21.18;35.69;99196.34;103066;1282;61296;-76
2024/01/07 08:57:32;;;;;;;9.10;7.10;;;;;;;21.18;35.80;99202.64;103427;1282;61245;-76
2024/01/07 08:59:58;;;;;;;10.30;6.80;;;;;;;21.18;35.74;99196.20;103243;1285;61114;-76
2024/01/07 09:02:25;;;;;;;9.60;7.40;;;;;;;21.18;35.66;99200.13;103272;1286;61401;-77
2024/01/07 09:04:51;;;;;;;9.20;7.20;;;;;;;21.17;35.80;99205.95;103329;1282;61286;-76
2024/01/07 09:07:19;;;;;;;10.20;7.70;;;;;;;21.17;35.59;99193.06;103329;1281;60001;-76
2024/01/07 09:09:45;;;;;;;11.20;7.30;;;;;;;21.17;35.70;99192.90;103265;1285;72642;-76
2024/01/07 09:12:10;;;;;;;11.00;7.40;;;;;;;21.17;35.70;99190.97;103268;1282;61336;-76
2024/01/07 09:14:39;;;;;;;9.80;7.00;;;;;;;21.16;35.77;99184.34;103318;1282;61316;-76
2024/01/07 09:17:05;;;;;;;11.00;7.40;;;;;;;21.16;35.71;99177.60;103422;1283;60089;-77
2024/01/07 09:19:31;;;;;;;11.40;7.30;;;;;;;21.16;35.68;99180.30;103222;1282;61833;-76
2024/01/07 09:21:57;;;;;;;9.50;7.00;;;;;;;21.15;35.77;99174.94;103190;1283;61283;-76
2024/01/07 09:24:23;;;;;;;10.10;6.80;;;;;;;21.15;35.71;99161.95;103289;1282;61394;-76
2024/01/07 09:26:49;;;;;;;9.90;7.20;;;;;;;21.15;35.73;99148.70;103495;1282;60256;-76
2024/01/07 09:29:14;;;;;;;11.00;8.00;;;;;;;21.15;35.81;99143.91;103300;1282;61452;-76
2024/01/07 09:31:40;;;;;;;9.60;7.30;;;;;;;21.14;35.74;99139.27;103194;1284;61330;-76
2024/01/07 09:34:06;;;;;;;11.20;7.20;;;;;;;21.14;35.72;99146.83;103291;1282;74464;-76
2024/01/07 09:36:33;;;;;;;10.70;7.20;;;;;;;21.14;35.68;99143.59;103204;1282;61355;-76
2024/01/07 09:38:59;;;;;;;9.40;7.50;;;;;;;21.14;35.75;99146.98;103341;1282;60085;-77
2024/01/07 09:41:24;;;;;;;9.70;7.50;;;;;;;21.14;35.72;99148.63;103370;1282;61388;-76
2024/01/07 09:43:51;;;;;;;11.20;7.40;;;;;;;21.14;35.75;99147.38;103285;1282;62373;-76
2024/01/07 09:46:17;;;;;;;9.90;7.00;;;;;;;21.14;35.84;99148.83;103252;1281;60468;-76
2024/01/07 09:48:43;;;;;;;9.80;6.90;;;;;;;21.14;35.85;99154.73;103241;1282;61278;-77
2024/01/07 09:51:09;;;;;;;10.10;7.00;;;;;;;21.13;35.76;99151.53;103279;1282;61449;-76
2024/01/07 09:53:36;;;;;;;10.00;7.40;;;;;;;21.14;35.86;99149.92;103190;1282;61359;-77
2024/01/07 09:56:07;;;;;;;9.50;6.80;;;;;;;21.13;35.79;99146.20;103306;1281;61465;-76
2024/01/07 09:58:33;;;;;;;10.70;7.40;;;;;;;21.13;35.73;99138.69;103363;1282;61192;-76
2024/01/07 10:00:59;;;;;;;10.40;6.80;;;;;;;21.13;35.85;99140.83;103624;1284;61369;-77
2024/01/07 10:03:25;;;;;;;10.30;7.60;;;;;;;21.13;35.72;99144.59;103234;1281;61240;-76
2024/01/07 10:05:52;;;;;;;10.60;6.70;;;;;;;21.13;35.89;99144.02;103288;1282;59362;-76
2024/01/07 10:08:17;;;;;;;9.20;7.20;;;;;;;21.13;35.95;99141.41;103237;1282;61260;-76
2024/01/07 10:10:43;;;;;;;9.50;6.70;;;;;;;21.13;35.99;99138.75;103298;1281;61407;-76
2024/01/07 10:13:09;;;;;;;8.50;6.60;;;;;;;21.13;35.85;99136.54;103308;1285;61370;-76
2024/01/07 10:15:34;;;;;;;9.90;6.60;;;;;;;21.13;35.85;99133.19;103334;1282;61408;-76
2024/01/07 10:18:05;;;;;;;10.60;7.30;;;;;;;21.13;35.90;99134.59;103212;1283;60162;-76
2024/01/07 10:20:33;;;;;;;9.90;6.90;;;;;;;21.13;35.77;99135.30;103252;1282;61439;-76
2024/01/07 10:22:59;;;;;;;8.90;7.00;;;;;;;21.13;35.89;99128.48;103208;1287;72279;-76
2024/01/07 10:25:24;;;;;;;8.90;6.70;;;;;;;21.13;35.87;99126.21;103333;1281;61473;-76
2024/01/07 10:27:50;;;;;;;8.60;7.00;;;;;;;21.13;36.04;99125.10;103428;1281;61178;-76
2024/01/07 10:30:16;;;;;;;9.50;6.90;;;;;;;21.13;35.89;99122.24;103416;1282;61398;-77
2024/01/07 10:32:43;;;;;;;9.30;7.00;;;;;;;21.13;36.01;99121.34;103943;1282;61385;-77
2024/01/07 10:35:16;;;;;;;9.80;6.50;;;;;;;21.12;35.89;99117.29;103600;1281;61865;-76
2024/01/07 10:37:42;;;;;;;10.40;6.90;;;;;;;21.12;36.01;99118.56;103954;1282;60030;-77
2024/01/07 10:40:09;;;;;;;9.40;6.70;;;;;;;21.12;36.15;99113.02;103956;1282;60401;-77
2024/01/07 10:42:34;;;;;;;9.50;6.60;;;;;;;21.12;35.94;99115.16;103389;1287;61205;-77
2024/01/07 10:45:00;;;;;;;9.30;6.50;;;;;;;21.12;35.94;99114.42;103559;1285;61451;-77
2024/01/07 10:47:31;;;;;;;9.10;6.30;;;;;;;21.12;35.97;99111.07;103323;1282;61400;-77
2024/01/07 10:50:00;;;;;;;8.30;6.60;;;;;;;21.12;36.09;99110.00;103974;1282;61468;-77
2024/01/07 10:52:30;;;;;;;8.80;6.40;;;;;;;21.12;35.96;99115.73;104091;1282;72334;-77
2024/01/07 10:54:56;;;;;;;;;;;;;;;21.12;36.01;99116.10;103629;1282;73487;-77
2024/01/07 10:57:34;;;;;;;9.60;6.50;;;;;;;21.08;36.15;99114.46;103475;1281;61251;-76
2024/01/07 11:00:00;;;;;;;11.00;6.90;;;;;;;21.09;35.98;99116.70;103485;1281;61304;-76
2024/01/07 11:02:25;;;;;;;7.90;6.00;;;;;;;21.08;36.04;99118.71;103387;1281;62233;-77
2024/01/07 11:05:00;;;;;;;9.30;6.60;;;;;;;21.09;36.08;99118.35;103235;1281;62040;-76
2024/01/07 11:07:37;;;;;;;8.50;6.60;;;;;;;21.08;36.01;99119.79;103316;1282;61314;-76
2024/01/07 11:10:21;;;;;;;9.80;6.80;;;;;;;21.09;36.11;99123.54;103349;1282;60875;-76
2024/01/07 11:12:58;;;;;;;9.40;6.60;;;;;;;21.08;36.03;99126.42;103160;1283;72225;-76
2024/01/07 11:15:52;;;;;;;8.60;6.70;;;;;;;21.07;36.06;99126.33;103269;1282;74448;-77